Time;durP1;ratioP1;P1;durP2;ratioP2;P2;SDS_P1;SDS_P2;PMS_P1;PMS_P2;Temp;Humidity;BMP_temperature;BMP_pressure;BME280_temperature;BME280_humidity;BME280_pressure;Samples;Min_cycle;Max_cycle;Signal;HPM_P1;HPM_P2
2022/05/19 00:01:20;;;;;;;6.60;6.10;;;21.90;39.30;;;;;;20458;6857;339229;-71
2022/05/19 00:03:46;;;;;;;5.03;4.63;;;22.00;39.50;;;;;;20678;6857;117096;-71
2022/05/19 00:06:13;;;;;;;3.83;3.53;;;21.80;39.50;;;;;;20449;6857;307193;-71
2022/05/19 00:08:38;;;;;;;3.60;3.05;;;21.80;39.50;;;;;;20610;6857;118503;-71
2022/05/19 00:11:03;;;;;;;2.90;2.70;;;21.70;39.50;;;;;;20665;6857;117367;-71
2022/05/19 00:13:30;;;;;;;2.63;2.53;;;21.60;40.20;;;;;;20399;6857;321657;-71
2022/05/19 00:15:56;;;;;;;2.60;2.40;;;21.90;39.90;;;;;;20446;6857;340495;-71
2022/05/19 00:18:22;;;;;;;2.70;2.55;;;22.00;39.50;;;;;;20444;6857;336757;-71
2022/05/19 00:20:48;;;;;;;2.57;2.40;;;22.00;39.50;;;;;;20460;6857;310042;-71
2022/05/19 00:23:14;;;;;;;2.40;2.20;;;21.90;39.30;;;;;;20683;6857;118336;-71
2022/05/19 00:25:40;;;;;;;3.05;2.53;;;21.90;39.20;;;;;;20470;6857;327419;-71
2022/05/19 00:28:05;;;;;;;3.17;2.47;;;21.90;39.50;;;;;;20472;6857;316260;-71
2022/05/19 00:30:31;;;;;;;3.37;2.58;;;22.00;39.40;;;;;;20453;6857;307682;-71
2022/05/19 00:32:57;;;;;;;2.70;2.50;;;22.20;39.10;;;;;;20467;6857;278045;-71
2022/05/19 00:35:23;;;;;;;2.53;2.33;;;22.20;39.10;;;;;;20687;6857;117095;-71
2022/05/19 00:37:48;;;;;;;2.40;2.30;;;21.90;39.20;;;;;;20684;6857;117434;-71
2022/05/19 00:40:15;;;;;;;2.37;2.28;;;21.20;39.90;;;;;;20680;6856;117265;-71
2022/05/19 00:42:43;;;;;;;2.30;2.10;;;21.10;39.80;;;;;;20652;6857;117745;-71
2022/05/19 00:45:09;;;;;;;2.40;2.30;;;20.90;40.20;;;;;;20684;6857;117076;-71
2022/05/19 00:47:34;;;;;;;2.50;2.30;;;20.70;40.20;;;;;;20675;6857;120081;-71
2022/05/19 00:50:00;;;;;;;2.60;2.43;;;20.60;40.20;;;;;;20455;6857;290409;-71
2022/05/19 00:52:29;;;;;;;3.03;2.30;;;20.90;40.00;;;;;;20665;6857;118177;-72
2022/05/19 00:54:57;;;;;;;2.60;2.20;;;20.90;39.90;;;;;;20459;6857;280530;-71
2022/05/19 00:57:23;;;;;;;3.20;2.37;;;21.10;39.70;;;;;;20492;6857;118236;-71
2022/05/19 00:59:51;;;;;;;2.23;2.13;;;21.10;39.70;;;;;;20666;6857;117691;-71
2022/05/19 01:02:17;;;;;;;3.15;2.47;;;20.90;39.70;;;;;;20088;6857;293231;-71
2022/05/19 01:04:44;;;;;;;2.40;2.30;;;21.40;38.90;;;;;;20450;6857;308945;-71
2022/05/19 01:07:10;;;;;;;3.33;2.30;;;21.30;38.80;;;;;;20446;6857;279973;-71
2022/05/19 01:09:37;;;;;;;4.12;2.40;;;21.80;38.10;;;;;;20439;6857;311637;-71
2022/05/19 01:12:02;;;;;;;2.50;2.30;;;21.70;38.00;;;;;;20445;6857;295524;-71
2022/05/19 01:14:27;;;;;;;2.65;2.37;;;21.90;37.70;;;;;;20432;6857;331295;-71
2022/05/19 01:16:53;;;;;;;3.10;2.57;;;21.90;37.40;;;;;;20453;6857;307627;-71
2022/05/19 01:19:28;;;;;;;3.10;2.50;;;22.00;37.30;;;;;;20458;6857;337166;-71
2022/05/19 01:21:55;;;;;;;2.00;1.90;;;22.00;37.30;;;;;;20575;6857;117278;-71
2022/05/19 01:24:21;;;;;;;2.93;1.90;;;21.70;37.40;;;;;;20649;6857;118503;-72
2022/05/19 01:26:47;;;;;;;2.63;2.33;;;21.00;38.30;;;;;;20655;6857;117365;-71
2022/05/19 01:29:12;;;;;;;2.22;2.03;;;21.00;38.30;;;;;;20451;6857;341030;-72
2022/05/19 01:31:51;;;;;;;2.20;2.00;;;21.10;39.20;;;;;;20445;6857;280062;-72
2022/05/19 01:34:17;;;;;;;2.63;2.20;;;21.30;37.80;;;;;;20447;6857;308290;-71
2022/05/19 01:36:42;;;;;;;2.42;2.28;;;21.60;37.70;;;;;;20437;6857;341035;-72
2022/05/19 01:39:14;;;;;;;2.42;2.22;;;21.70;37.70;;;;;;20678;6857;117144;-71
2022/05/19 01:42:09;;;;;;;3.90;3.10;;;21.60;37.90;;;;;;20450;6857;278131;-71
2022/05/19 01:44:55;;;;;;;5.97;4.90;;;21.50;37.80;;;;;;20437;6857;431642;-72
2022/05/19 01:47:33;;;;;;;4.65;3.37;;;21.70;37.60;;;;;;20451;6857;311679;-71
2022/05/19 01:50:32;;;;;;;3.07;2.53;;;21.80;37.40;;;;;;20645;6857;118909;-71
2022/05/19 01:53:01;;;;;;;2.70;2.60;;;21.50;37.60;;;;;;20648;6856;117632;-71
2022/05/19 01:55:43;;;;;;;2.50;2.30;;;21.00;38.20;;;;;;20412;6857;308145;-71
2022/05/19 01:58:08;;;;;;;2.30;2.10;;;21.00;38.00;;;;;;20664;6857;117569;-71
2022/05/19 02:00:34;;;;;;;2.40;2.20;;;21.00;38.90;;;;;;20399;6857;339353;-72
2022/05/19 02:03:20;;;;;;;2.67;2.10;;;21.00;38.40;;;;;;20682;6857;118892;-71
2022/05/19 02:05:58;;;;;;;2.40;2.20;;;20.90;38.50;;;;;;20661;6857;117272;-71
2022/05/19 02:08:30;;;;;;;2.27;2.17;;;20.60;39.10;;;;;;20630;6857;118481;-71
2022/05/19 02:10:55;;;;;;;2.30;2.20;;;20.40;39.80;;;;;;20598;6872;118159;-71
2022/05/19 02:13:21;;;;;;;2.55;2.35;;;20.30;40.10;;;;;;20425;6857;308126;-71
2022/05/19 02:15:47;;;;;;;2.30;2.20;;;20.50;39.80;;;;;;20630;6863;117324;-71
2022/05/19 02:18:12;;;;;;;2.08;1.98;;;20.50;39.60;;;;;;20656;6857;117291;-70
2022/05/19 02:20:38;;;;;;;2.23;2.03;;;20.40;39.90;;;;;;20598;6863;121597;-71
2022/05/19 02:23:03;;;;;;;2.37;2.08;;;20.20;40.10;;;;;;20444;6857;312637;-71
2022/05/19 02:25:36;;;;;;;2.13;1.93;;;20.40;40.50;;;;;;20653;6863;117313;-71
2022/05/19 02:28:01;;;;;;;2.60;2.40;;;20.40;40.30;;;;;;20359;6872;311033;-71
2022/05/19 02:30:30;;;;;;;2.20;2.10;;;20.60;40.00;;;;;;20597;6870;118719;-71
2022/05/19 02:32:57;;;;;;;2.40;2.20;;;20.20;40.30;;;;;;20603;6868;124197;-71
2022/05/19 02:35:24;;;;;;;2.20;2.00;;;20.20;40.30;;;;;;20634;6868;117688;-71
2022/05/19 02:37:49;;;;;;;2.57;2.40;;;19.90;40.60;;;;;;20370;6883;281772;-72
2022/05/19 02:40:15;;;;;;;2.47;2.30;;;20.10;41.40;;;;;;20403;6872;283840;-71
2022/05/19 02:42:41;;;;;;;2.20;2.00;;;20.40;40.90;;;;;;20349;6878;312707;-71
2022/05/19 02:45:07;;;;;;;2.87;2.20;;;20.70;40.20;;;;;;20574;6887;118745;-71
2022/05/19 02:47:33;;;;;;;2.27;2.17;;;20.50;40.20;;;;;;20607;6878;118179;-71
2022/05/19 02:49:59;;;;;;;2.30;2.10;;;20.10;40.80;;;;;;20584;6883;117632;-71
2022/05/19 02:52:24;;;;;;;2.33;2.17;;;19.80;41.50;;;;;;20367;6883;279544;-71
2022/05/19 02:54:50;;;;;;;2.30;2.20;;;20.00;41.40;;;;;;20380;6883;309026;-71
2022/05/19 02:57:15;;;;;;;2.25;2.15;;;20.30;40.80;;;;;;20599;6883;117252;-71
2022/05/19 02:59:42;;;;;;;2.33;2.22;;;20.20;40.90;;;;;;20587;6887;117243;-70
2022/05/19 03:02:06;;;;;;;3.25;2.20;;;19.80;41.20;;;;;;20348;6887;314523;-71
2022/05/19 03:04:32;;;;;;;2.70;2.30;;;20.00;41.50;;;;;;20589;6876;126917;-71
2022/05/19 03:06:58;;;;;;;2.50;2.30;;;20.00;41.60;;;;;;20370;6886;279999;-71
2022/05/19 03:09:24;;;;;;;2.80;2.50;;;19.90;41.50;;;;;;20396;6878;312984;-71
2022/05/19 03:11:49;;;;;;;2.55;2.35;;;20.20;41.10;;;;;;20359;6887;309214;-71
2022/05/19 03:14:16;;;;;;;2.30;2.20;;;20.10;41.00;;;;;;20601;6878;117184;-73
2022/05/19 03:16:41;;;;;;;2.50;2.30;;;20.10;41.00;;;;;;20374;6883;308724;-73
2022/05/19 03:19:09;;;;;;;4.03;2.40;;;20.10;41.30;;;;;;20391;6883;279170;-73
2022/05/19 03:21:32;;;;;;;2.63;2.40;;;20.20;41.10;;;;;;20594;6883;123784;-73
2022/05/19 03:23:58;;;;;;;2.37;2.17;;;20.00;41.30;;;;;;20369;6883;279742;-73
2022/05/19 03:26:24;;;;;;;2.45;2.33;;;19.80;42.20;;;;;;20562;6883;118597;-74
2022/05/19 03:28:50;;;;;;;2.40;2.30;;;19.80;41.70;;;;;;20610;6878;117596;-73
2022/05/19 03:31:15;;;;;;;2.87;2.67;;;19.50;42.00;;;;;;20379;6878;343173;-73
2022/05/19 03:33:41;;;;;;;2.67;2.50;;;19.60;41.90;;;;;;20399;6878;308134;-74
2022/05/19 03:36:08;;;;;;;2.30;2.20;;;19.90;41.50;;;;;;20607;6878;117217;-73
2022/05/19 03:38:32;;;;;;;2.67;2.47;;;19.70;41.60;;;;;;20403;6872;278870;-73
2022/05/19 03:40:58;;;;;;;2.17;2.07;;;19.80;41.80;;;;;;20617;6872;117635;-73
2022/05/19 03:43:24;;;;;;;2.67;2.50;;;19.70;42.10;;;;;;20420;6872;307894;-73
2022/05/19 03:45:50;;;;;;;2.80;2.60;;;19.60;41.90;;;;;;20419;6872;338223;-74
2022/05/19 03:48:15;;;;;;;2.47;2.27;;;19.80;41.60;;;;;;20618;6872;117232;-74
2022/05/19 03:50:45;;;;;;;2.60;2.50;;;19.30;42.20;;;;;;20600;6872;118868;-73
2022/05/19 03:53:10;;;;;;;2.40;2.20;;;19.30;42.20;;;;;;20402;6872;309397;-73
2022/05/19 03:55:37;;;;;;;2.37;2.20;;;19.30;42.50;;;;;;20627;6872;117402;-74
2022/05/19 03:58:02;;;;;;;2.47;2.27;;;19.30;42.50;;;;;;20617;6872;118084;-73
2022/05/19 04:00:28;;;;;;;2.73;2.47;;;19.10;42.80;;;;;;20591;6872;117747;-73
2022/05/19 04:02:53;;;;;;;2.97;2.77;;;18.90;43.20;;;;;;20411;6872;313142;-74
2022/05/19 04:05:19;;;;;;;3.73;2.57;;;19.20;43.20;;;;;;20624;6872;117217;-74
2022/05/19 04:07:46;;;;;;;2.33;2.23;;;19.50;44.40;;;;;;20417;6872;278113;-72
2022/05/19 04:10:11;;;;;;;2.63;2.43;;;19.50;44.30;;;;;;20605;6872;123076;-73
2022/05/19 04:12:36;;;;;;;2.67;2.47;;;19.50;44.20;;;;;;20394;6872;279181;-74
2022/05/19 04:15:03;;;;;;;2.50;2.40;;;19.70;44.10;;;;;;20405;6870;283362;-74
2022/05/19 04:17:33;;;;;;;2.17;2.07;;;20.00;43.50;;;;;;20616;6872;120893;-73
2022/05/19 04:19:53;;;;;;;2.80;2.60;;;19.90;43.40;;;;;;20405;6872;309010;-74
2022/05/19 04:22:19;;;;;;;2.78;2.58;;;20.00;43.00;;;;;;20388;6872;309082;-74
2022/05/19 04:24:44;;;;;;;3.00;2.50;;;20.20;43.00;;;;;;20434;6872;311663;-75
2022/05/19 04:27:14;;;;;;;3.33;2.37;;;20.30;42.50;;;;;;20625;6872;118697;-74
2022/05/19 04:29:38;;;;;;;2.60;2.40;;;20.10;42.60;;;;;;20408;6872;279351;-72
2022/05/19 04:32:04;;;;;;;2.70;2.58;;;20.10;43.00;;;;;;20607;6872;117552;-74
2022/05/19 04:34:30;;;;;;;3.30;2.70;;;20.00;43.10;;;;;;20597;6872;117702;-76
2022/05/19 04:36:55;;;;;;;3.00;2.90;;;19.70;43.60;;;;;;20413;6872;307977;-69
2022/05/19 04:39:21;;;;;;;3.10;2.90;;;19.90;44.00;;;;;;20403;6872;308937;-73
2022/05/19 04:41:46;;;;;;;3.20;3.00;;;20.20;43.60;;;;;;20602;6872;117491;-71
2022/05/19 04:44:12;;;;;;;3.20;3.00;;;20.20;43.60;;;;;;20640;6872;116238;-70
2022/05/19 04:46:37;;;;;;;4.13;3.30;;;20.00;44.00;;;;;;20614;6872;120674;-71
2022/05/19 04:49:03;;;;;;;4.20;3.47;;;19.80;44.30;;;;;;20631;6872;117141;-69
2022/05/19 04:51:29;;;;;;;3.60;3.40;;;19.70;44.70;;;;;;20608;6872;120224;-70
2022/05/19 04:53:54;;;;;;;3.50;3.30;;;19.60;45.10;;;;;;20629;6872;123091;-71
2022/05/19 04:56:20;;;;;;;3.53;3.22;;;19.40;45.20;;;;;;20605;6872;118415;-70
2022/05/19 04:58:45;;;;;;;3.47;3.27;;;19.40;45.50;;;;;;20638;6872;117804;-70
2022/05/19 05:01:12;;;;;;;3.40;3.20;;;19.30;45.90;;;;;;20621;6872;121087;-69
2022/05/19 05:03:37;;;;;;;3.67;3.47;;;19.30;45.90;;;;;;20396;6872;301047;-70
2022/05/19 05:06:03;;;;;;;3.67;3.40;;;19.70;45.90;;;;;;20410;6872;312078;-69
2022/05/19 05:08:28;;;;;;;3.23;3.03;;;20.20;45.20;;;;;;20389;6872;312411;-69
2022/05/19 05:10:54;;;;;;;3.20;3.00;;;20.60;44.60;;;;;;20616;6872;117877;-70
2022/05/19 05:13:21;;;;;;;3.47;3.27;;;20.60;43.90;;;;;;20396;6872;277870;-70
2022/05/19 05:15:46;;;;;;;4.07;3.78;;;20.70;43.40;;;;;;20409;6872;337359;-70
2022/05/19 05:18:12;;;;;;;3.50;3.30;;;21.00;43.70;;;;;;20625;6872;117669;-69
2022/05/19 05:20:37;;;;;;;3.00;2.80;;;21.00;43.90;;;;;;20587;6872;118456;-69
2022/05/19 05:23:03;;;;;;;3.27;3.07;;;20.70;44.20;;;;;;20399;6872;309174;-69
2022/05/19 05:25:29;;;;;;;2.73;2.63;;;20.90;44.00;;;;;;20613;6872;117523;-69
2022/05/19 05:27:54;;;;;;;2.90;2.70;;;20.90;44.10;;;;;;20402;6870;308697;-71
2022/05/19 05:30:20;;;;;;;3.33;3.03;;;21.00;43.50;;;;;;20383;6872;308585;-70
2022/05/19 05:32:45;;;;;;;2.67;2.47;;;21.40;42.70;;;;;;20621;6872;119640;-70
2022/05/19 05:35:11;;;;;;;3.20;2.90;;;21.30;42.80;;;;;;20419;6872;278552;-70
2022/05/19 05:37:37;;;;;;;2.72;2.62;;;21.40;42.70;;;;;;20624;6872;117195;-69
2022/05/19 05:40:03;;;;;;;2.67;2.57;;;21.40;42.70;;;;;;20616;6872;118393;-69
2022/05/19 05:42:28;;;;;;;3.20;2.90;;;21.30;43.10;;;;;;20386;6872;278697;-70
2022/05/19 05:44:54;;;;;;;2.90;2.70;;;21.50;43.50;;;;;;20409;6872;336930;-69
2022/05/19 05:47:20;;;;;;;3.57;3.10;;;21.80;42.40;;;;;;20626;6872;117577;-70
2022/05/19 05:49:45;;;;;;;3.17;2.90;;;21.80;42.50;;;;;;20405;6872;308321;-70
2022/05/19 05:52:11;;;;;;;3.28;3.03;;;22.00;42.30;;;;;;20403;6872;317101;-70
2022/05/19 05:54:36;;;;;;;3.23;3.03;;;22.30;41.90;;;;;;20396;6872;294231;-71
2022/05/19 05:57:02;;;;;;;3.50;3.20;;;22.50;41.70;;;;;;20416;6872;279378;-70
2022/05/19 05:59:28;;;;;;;3.53;3.33;;;22.70;41.70;;;;;;20408;6872;307788;-71
2022/05/19 06:01:53;;;;;;;3.50;3.30;;;22.90;42.10;;;;;;20405;6872;282727;-71
2022/05/19 06:04:19;;;;;;;3.93;3.27;;;23.10;41.50;;;;;;20397;6872;279223;-71
2022/05/19 06:06:46;;;;;;;3.40;3.20;;;23.10;41.50;;;;;;20618;6872;117852;-70
2022/05/19 06:09:15;;;;;;;6.00;3.63;;;22.70;42.60;;;;;;20621;6872;118369;-71
2022/05/19 06:11:42;;;;;;;3.33;3.13;;;22.50;42.80;;;;;;20610;6872;117619;-71
2022/05/19 06:14:06;;;;;;;3.50;3.20;;;22.40;42.70;;;;;;20621;6872;117262;-72
2022/05/19 06:16:33;;;;;;;3.80;3.30;;;22.70;43.90;;;;;;20401;6872;277882;-72
2022/05/19 06:18:59;;;;;;;3.40;3.10;;;22.70;43.80;;;;;;20412;6872;278298;-72
2022/05/19 06:21:25;;;;;;;4.43;3.03;;;23.10;42.80;;;;;;20613;6872;118831;-73
2022/05/19 06:23:49;;;;;;;4.03;3.17;;;23.40;43.10;;;;;;20416;6872;284825;-72
2022/05/19 06:26:15;;;;;;;3.40;3.00;;;24.00;42.10;;;;;;20420;6872;279903;-71
2022/05/19 06:28:41;;;;;;;3.55;3.28;;;24.80;40.80;;;;;;20399;6872;308602;-72
2022/05/19 06:31:07;;;;;;;3.30;3.00;;;26.40;37.80;;;;;;20411;6872;281589;-71
2022/05/19 06:33:35;;;;;;;2.70;2.60;;;26.30;37.70;;;;;;20629;6872;118273;-72
2022/05/19 06:35:58;;;;;;;3.30;3.00;;;26.70;38.20;;;;;;20413;6872;308120;-72
2022/05/19 06:38:24;;;;;;;3.20;2.90;;;27.30;36.50;;;;;;20611;6871;118743;-72
2022/05/19 06:40:49;;;;;;;3.60;2.65;;;27.50;36.70;;;;;;20411;6872;278903;-72
2022/05/19 06:43:15;;;;;;;3.83;2.80;;;27.90;35.20;;;;;;20413;6872;308764;-69
2022/05/19 06:45:40;;;;;;;3.00;2.90;;;28.40;34.60;;;;;;20631;6872;118779;-69
2022/05/19 06:48:06;;;;;;;4.53;3.10;;;28.40;35.10;;;;;;20407;6872;296068;-69
2022/05/19 06:50:31;;;;;;;3.00;2.70;;;28.60;34.20;;;;;;20598;6872;117716;-69
2022/05/19 06:53:01;;;;;;;2.83;2.63;;;28.70;35.00;;;;;;20622;6872;117742;-69
2022/05/19 06:55:23;;;;;;;3.43;3.23;;;28.60;35.30;;;;;;20395;6872;308158;-69
2022/05/19 06:57:48;;;;;;;3.08;2.95;;;28.90;34.50;;;;;;20627;6872;118784;-70
2022/05/19 07:00:14;;;;;;;3.33;3.10;;;28.90;34.30;;;;;;20623;6872;117193;-69
2022/05/19 07:02:43;;;;;;;3.33;3.13;;;28.90;34.30;;;;;;20396;6872;278998;-70
2022/05/19 07:05:08;;;;;;;3.03;2.80;;;29.00;32.40;;;;;;20410;6872;307861;-71
2022/05/19 07:07:34;;;;;;;2.90;2.70;;;29.40;32.60;;;;;;20636;6872;117813;-72
2022/05/19 07:09:59;;;;;;;3.00;2.73;;;29.30;33.00;;;;;;20610;6872;118343;-71
2022/05/19 07:12:25;;;;;;;3.30;3.00;;;29.10;33.40;;;;;;20390;6872;308589;-73
2022/05/19 07:14:50;;;;;;;4.33;4.03;;;29.10;33.40;;;;;;20631;6872;118545;-73
2022/05/19 07:17:17;;;;;;;3.50;3.20;;;29.00;33.70;;;;;;20402;6872;307664;-73
2022/05/19 07:22:28;;;;;;;2.93;2.83;;;28.60;34.10;;;;;;20603;6872;118427;-72
2022/05/19 07:24:54;;;;;;;3.17;2.97;;;28.60;34.10;;;;;;20405;6872;298462;-71
2022/05/19 07:27:19;;;;;;;3.33;3.03;;;28.70;34.10;;;;;;20407;6872;307431;-72
2022/05/19 07:29:44;;;;;;;3.50;3.20;;;29.00;34.00;;;;;;20632;6872;117728;-72
2022/05/19 07:32:10;;;;;;;3.07;2.90;;;28.90;34.10;;;;;;20611;6872;117707;-72
2022/05/19 07:34:36;;;;;;;3.05;2.72;;;28.70;34.40;;;;;;20392;6872;443699;-73
2022/05/19 07:37:02;;;;;;;2.53;2.43;;;28.70;34.40;;;;;;20614;6872;117366;-69
2022/05/19 07:39:27;;;;;;;2.97;2.60;;;28.70;34.40;;;;;;20398;6872;306474;-72
2022/05/19 07:41:55;;;;;;;4.97;2.77;;;28.90;34.70;;;;;;20615;6872;117249;-70
2022/05/19 07:44:19;;;;;;;2.85;2.65;;;28.90;34.10;;;;;;20368;6872;278866;-71
2022/05/19 07:46:45;;;;;;;3.00;2.70;;;29.00;33.30;;;;;;20406;6872;304715;-71
2022/05/19 07:49:11;;;;;;;3.30;2.60;;;29.20;33.40;;;;;;20403;6872;308538;-71
2022/05/19 07:51:40;;;;;;;2.60;2.40;;;29.50;33.20;;;;;;20614;6870;118746;-71
2022/05/19 07:54:04;;;;;;;2.72;2.53;;;29.40;32.90;;;;;;20407;6872;342545;-71
2022/05/19 07:56:29;;;;;;;2.67;2.27;;;29.50;33.30;;;;;;20607;6872;118411;-71
2022/05/19 07:58:55;;;;;;;3.00;2.80;;;29.50;33.40;;;;;;20409;6872;308140;-70
2022/05/19 08:01:21;;;;;;;2.60;2.40;;;29.60;32.80;;;;;;20639;6872;117151;-70
2022/05/19 08:03:46;;;;;;;2.83;2.53;;;29.60;33.00;;;;;;20430;6872;279385;-72
2022/05/19 08:06:12;;;;;;;2.50;2.30;;;29.70;31.60;;;;;;20628;6872;117210;-74
2022/05/19 08:08:37;;;;;;;2.83;2.62;;;29.80;31.80;;;;;;20406;6872;300779;-75
2022/05/19 08:11:04;;;;;;;2.57;2.37;;;29.90;31.20;;;;;;20638;6872;117163;-75
2022/05/19 08:16:15;;;;;;;3.67;2.60;;;30.10;32.90;;;;;;20647;6872;118253;-78
2022/05/19 08:18:41;;;;;;;2.60;2.40;;;30.10;32.60;;;;;;20414;6872;283594;-77
2022/05/19 08:21:07;;;;;;;3.83;2.90;;;30.20;32.40;;;;;;20638;6872;119312;-77
2022/05/19 08:23:32;;;;;;;2.97;2.67;;;30.30;32.50;;;;;;20630;6872;117704;-77
2022/05/19 08:25:58;;;;;;;2.60;2.50;;;30.20;32.80;;;;;;20639;6872;117931;-78
2022/05/19 08:28:29;;;;;;;2.72;2.50;;;30.10;33.20;;;;;;20623;6872;118464;-75
2022/05/19 08:30:49;;;;;;;4.07;2.60;;;30.10;33.50;;;;;;20624;6872;117432;-74
2022/05/19 08:33:14;;;;;;;4.30;2.60;;;30.10;33.60;;;;;;20648;6872;117208;-75
2022/05/19 08:35:41;;;;;;;3.40;3.05;;;30.10;34.00;;;;;;20429;6872;316383;-76
2022/05/19 08:38:06;;;;;;;3.28;2.95;;;30.40;33.30;;;;;;20441;6872;279165;-75
2022/05/19 08:40:38;;;;;;;2.63;2.53;;;30.80;32.80;;;;;;20625;6872;121300;-75
2022/05/19 08:43:03;;;;;;;3.17;2.97;;;31.00;33.10;;;;;;20631;6872;122084;-74
2022/05/19 08:45:29;;;;;;;4.20;3.15;;;31.00;33.80;;;;;;20431;6872;312734;-75
2022/05/19 08:47:56;;;;;;;4.43;2.93;;;31.20;33.70;;;;;;20415;6872;341119;-75
2022/05/19 08:50:34;;;;;;;3.80;3.30;;;31.50;33.50;;;;;;20383;6872;278957;-75
2022/05/19 08:53:00;;;;;;;3.43;3.03;;;31.90;33.10;;;;;;20425;6872;278373;-74
2022/05/19 08:55:26;;;;;;;6.57;3.23;;;32.20;32.20;;;;;;20437;6872;287653;-74
2022/05/19 08:58:01;;;;;;;3.67;3.37;;;32.40;32.10;;;;;;20649;6872;118463;-73
2022/05/19 09:00:30;;;;;;;3.43;3.10;;;32.30;32.40;;;;;;20594;6872;119295;-74
2022/05/19 09:03:22;;;;;;;5.33;3.13;;;32.10;33.20;;;;;;20219;6871;122712;-74
2022/05/19 09:06:17;;;;;;;5.17;3.40;;;32.00;33.60;;;;;;20629;6872;117104;-73
2022/05/19 09:08:49;;;;;;;3.47;3.13;;;31.90;33.70;;;;;;20366;6872;307745;-73
2022/05/19 09:11:15;;;;;;;3.40;3.00;;;32.10;33.60;;;;;;20606;6872;117186;-74
2022/05/19 09:13:53;;;;;;;3.33;2.93;;;32.20;33.30;;;;;;20632;6872;118721;-73
2022/05/19 09:16:19;;;;;;;7.47;3.20;;;32.20;33.80;;;;;;20609;6872;117224;-73
2022/05/19 09:18:45;;;;;;;3.87;3.20;;;32.10;33.90;;;;;;20634;6872;118439;-74
2022/05/19 09:21:10;;;;;;;3.30;3.00;;;32.10;34.00;;;;;;20415;6872;308136;-73
2022/05/19 09:23:35;;;;;;;3.00;2.90;;;32.40;34.40;;;;;;20651;6872;117771;-73
2022/05/19 09:26:04;;;;;;;3.12;2.92;;;32.50;34.20;;;;;;20431;6872;307805;-73
2022/05/19 09:28:29;;;;;;;3.90;2.97;;;32.80;34.30;;;;;;20532;6872;124996;-73
2022/05/19 09:30:55;;;;;;;2.80;2.60;;;32.90;33.50;;;;;;20642;6872;118226;-74
2022/05/19 09:33:20;;;;;;;3.47;3.17;;;32.80;33.70;;;;;;20425;6872;312474;-73
2022/05/19 09:35:49;;;;;;;3.53;3.33;;;33.00;32.90;;;;;;20633;6872;117179;-73
2022/05/19 09:38:34;;;;;;;3.10;2.90;;;33.10;33.00;;;;;;20633;6872;118829;-73
2022/05/19 09:41:06;;;;;;;4.20;2.83;;;33.00;33.00;;;;;;20641;6872;117308;-74
2022/05/19 09:43:33;;;;;;;3.50;3.20;;;33.20;34.30;;;;;;20383;6872;308075;-73
2022/05/19 09:46:09;;;;;;;4.43;3.15;;;33.50;34.10;;;;;;20423;6872;308246;-73
2022/05/19 09:48:34;;;;;;;3.90;3.30;;;33.50;33.40;;;;;;20396;6872;309004;-73
2022/05/19 09:51:00;;;;;;;4.27;3.00;;;33.90;32.80;;;;;;20641;6872;117424;-74
2022/05/19 09:53:25;;;;;;;3.47;3.15;;;33.90;32.30;;;;;;20419;6872;307938;-74
2022/05/19 09:55:54;;;;;;;3.30;3.00;;;34.00;32.50;;;;;;20418;6872;312214;-74
2022/05/19 09:58:20;;;;;;;3.95;3.00;;;34.30;31.10;;;;;;20403;6872;307020;-73
2022/05/19 10:00:53;;;;;;;3.13;2.93;;;34.50;32.50;;;;;;20640;6872;117883;-73
2022/05/19 10:03:34;;;;;;;3.93;2.93;;;34.50;32.20;;;;;;20420;6872;302509;-74
2022/05/19 10:06:13;;;;;;;3.10;2.90;;;34.60;32.20;;;;;;20435;6872;278564;-73
2022/05/19 10:08:39;;;;;;;3.97;3.67;;;34.90;30.00;;;;;;20596;6872;120975;-73
2022/05/19 10:11:14;;;;;;;3.97;3.00;;;34.70;30.60;;;;;;20424;6872;278562;-72
2022/05/19 10:13:48;;;;;;;3.47;2.80;;;34.60;30.70;;;;;;20636;6870;117172;-73
2022/05/19 10:16:26;;;;;;;5.78;3.00;;;34.60;30.60;;;;;;20414;6872;330539;-72
2022/05/19 10:18:59;;;;;;;3.90;3.33;;;34.60;30.40;;;;;;20646;6872;117408;-72
2022/05/19 10:21:27;;;;;;;5.30;3.10;;;34.50;30.50;;;;;;20515;6872;117597;-72
2022/05/19 10:23:58;;;;;;;2.93;2.83;;;34.30;31.30;;;;;;20621;6872;119188;-72
2022/05/19 10:26:38;;;;;;;3.90;3.20;;;34.20;31.70;;;;;;20385;6872;283726;-73
2022/05/19 10:32:33;;;;;;;4.30;3.27;;;34.80;31.60;;;;;;20442;6872;279608;-73
2022/05/19 10:34:58;;;;;;;3.27;2.97;;;35.20;30.00;;;;;;20435;6872;283177;-73
2022/05/19 10:37:47;;;;;;;3.67;3.37;;;35.40;29.90;;;;;;20611;6872;117821;-73
2022/05/19 10:40:23;;;;;;;5.37;3.15;;;35.30;29.60;;;;;;20435;6872;337040;-73
2022/05/19 10:43:12;;;;;;;4.03;3.00;;;35.50;29.90;;;;;;20425;6872;282248;-73
2022/05/19 10:45:41;;;;;;;3.27;2.83;;;35.40;29.80;;;;;;20654;6872;117225;-74
2022/05/19 10:48:27;;;;;;;4.07;3.27;;;35.40;29.70;;;;;;20621;6872;118294;-73
2022/05/19 10:51:12;;;;;;;2.93;2.60;;;35.10;29.50;;;;;;20608;6872;117318;-73
2022/05/19 10:53:50;;;;;;;4.90;3.00;;;34.90;29.80;;;;;;20105;6872;308256;-75
2022/05/19 10:56:26;;;;;;;4.07;2.80;;;35.00;28.70;;;;;;20637;6872;118776;-77
2022/05/19 10:58:54;;;;;;;4.67;2.93;;;35.00;28.70;;;;;;20641;6872;117826;-73
2022/05/19 11:01:26;;;;;;;3.10;2.90;;;34.80;28.40;;;;;;20617;6872;117050;-75
2022/05/19 11:04:32;;;;;;;3.00;2.80;;;34.70;28.70;;;;;;20411;6872;332138;-74
2022/05/19 11:07:20;;;;;;;3.50;3.20;;;34.80;28.90;;;;;;20649;6872;118261;-74
2022/05/19 11:09:52;;;;;;;3.20;3.00;;;34.90;29.40;;;;;;20644;6872;117230;-73
2022/05/19 11:12:37;;;;;;;2.93;2.60;;;34.90;29.10;;;;;;20623;6872;117603;-73
2022/05/19 11:15:37;;;;;;;3.03;2.73;;;34.90;27.90;;;;;;20427;6872;312024;-74
2022/05/19 11:18:23;;;;;;;5.27;2.90;;;34.90;28.70;;;;;;20628;6872;118716;-73
2022/05/19 11:21:03;;;;;;;4.05;2.85;;;34.90;28.10;;;;;;20414;6872;308469;-74
2022/05/19 11:23:52;;;;;;;7.20;3.00;;;35.30;28.50;;;;;;20426;6872;306955;-77
2022/05/19 11:26:28;;;;;;;4.12;2.80;;;35.30;28.10;;;;;;20413;6871;308218;-73
2022/05/19 11:29:06;;;;;;;7.40;2.90;;;35.60;27.60;;;;;;20621;6872;117734;-75
2022/05/19 11:31:41;;;;;;;3.10;2.80;;;35.60;27.60;;;;;;20423;6872;308006;-74
2022/05/19 11:34:19;;;;;;;3.10;2.90;;;35.50;26.60;;;;;;20654;6872;117079;-73
2022/05/19 11:36:45;;;;;;;3.10;2.90;;;35.30;26.80;;;;;;20646;6872;117338;-74
2022/05/19 11:39:20;;;;;;;4.07;2.80;;;35.10;26.90;;;;;;20274;6872;117711;-75
2022/05/19 11:41:47;;;;;;;2.65;2.45;;;34.90;27.20;;;;;;20424;6872;340671;-76
2022/05/19 11:44:29;;;;;;;3.30;2.70;;;35.00;27.00;;;;;;20421;6872;309492;-75
2022/05/19 11:46:59;;;;;;;3.10;2.78;;;35.40;26.20;;;;;;20276;6872;337354;-73
2022/05/19 11:55:19;;;;;;;2.87;2.63;;;35.10;26.90;;;;;;20435;6872;277906;-73
2022/05/19 11:57:56;;;;;;;3.33;2.58;;;35.10;26.70;;;;;;20427;6872;337297;-73
2022/05/19 12:00:19;;;;;;;3.20;2.77;;;35.30;26.40;;;;;;20621;6872;117522;-72
2022/05/19 12:02:49;;;;;;;4.85;2.50;;;35.00;26.80;;;;;;20636;6872;117412;-71
2022/05/19 12:05:31;;;;;;;7.50;3.07;;;35.00;27.30;;;;;;20417;6872;300696;-72
2022/05/19 12:07:56;;;;;;;3.58;2.60;;;35.10;26.50;;;;;;19823;6857;308019;-71
2022/05/19 12:10:25;;;;;;;3.37;2.77;;;35.30;25.90;;;;;;20373;6857;282653;-72
2022/05/19 12:12:51;;;;;;;3.15;2.80;;;35.40;26.20;;;;;;20342;6872;282918;-71
2022/05/19 12:15:26;;;;;;;6.20;2.63;;;35.50;26.50;;;;;;20422;6872;307692;-70
2022/05/19 12:17:58;;;;;;;3.03;2.60;;;35.60;26.90;;;;;;20635;6872;117491;-71
2022/05/19 12:20:33;;;;;;;3.83;2.50;;;35.50;26.00;;;;;;20623;6872;126625;-71
2022/05/19 12:23:09;;;;;;;4.73;2.57;;;35.20;25.70;;;;;;20606;6876;117944;-71
2022/05/19 12:25:35;;;;;;;3.58;2.70;;;34.90;26.00;;;;;;20616;6876;117448;-71
2022/05/19 12:28:03;;;;;;;2.97;2.60;;;34.60;26.10;;;;;;20413;6876;279196;-71
2022/05/19 12:33:25;;;;;;;3.70;2.50;;;34.80;25.80;;;;;;20434;6868;278726;-71
2022/05/19 12:35:51;;;;;;;2.40;2.20;;;35.00;24.90;;;;;;20645;6866;123069;-70
2022/05/19 12:38:26;;;;;;;3.00;2.37;;;34.90;24.70;;;;;;20633;6867;117109;-72
2022/05/19 12:40:54;;;;;;;3.83;2.23;;;34.60;25.00;;;;;;20640;6868;117375;-71
2022/05/19 12:43:20;;;;;;;2.60;2.40;;;34.40;25.40;;;;;;20639;6868;117214;-71
2022/05/19 12:45:47;;;;;;;6.10;2.43;;;34.00;25.30;;;;;;20642;6868;117125;-71
2022/05/19 12:48:11;;;;;;;5.00;2.87;;;34.00;25.30;;;;;;20644;6868;117125;-72
2022/05/19 12:50:44;;;;;;;2.93;2.50;;;34.00;26.50;;;;;;20426;6868;304390;-71
2022/05/19 12:53:13;;;;;;;3.87;2.60;;;34.10;26.50;;;;;;20636;6868;120763;-71
2022/05/19 12:55:36;;;;;;;2.70;2.50;;;34.20;26.20;;;;;;20579;6868;117251;-71
2022/05/19 12:58:01;;;;;;;3.03;2.57;;;34.10;26.10;;;;;;20451;6868;282176;-72
2022/05/19 13:00:27;;;;;;;3.00;2.50;;;34.20;25.60;;;;;;20552;6868;118820;-72